Date,TemperatureHighF,TemperatureAvgF,TemperatureLowF,DewpointHighF,DewpointAvgF,DewpointLowF,HumidityHigh,HumidityAvg,HumidityLow,PressureMaxIn,PressureMinIn,WindSpeedMaxMPH,WindSpeedAvgMPH,GustSpeedMaxMPH,PrecipitationSumIn
2012-1-1,35.1,26.0,19.2,14.0,10.0,0.3,70,51,31,30.79,30.32,13,3,19,0.00
2012-1-2,52.5,32.8,17.8,19.6,14.1,10.6,78,51,20,30.82,30.35,6,1,9,0.00
2012-1-3,61.3,46.4,30.9,15.1,9.5,3.4,49,24,10,30.35,30.10,20,5,29,0.00
2012-1-4,61.5,40.5,22.1,17.8,12.0,5.4,64,36,11,30.38,30.28,16,2,19,0.00
2012-1-5,70.3,53.4,37.2,21.2,14.4,8.4,46,23,11,30.29,29.74,22,5,27,0.00
2012-1-6,54.1,41.2,26.1,21.9,17.0,11.8,72,41,20,30.00,29.73,20,4,28,0.00
2012-1-7,37.2,28.1,21.0,28.8,20.6,14.9,90,74,49,30.28,29.95,10,-2,13,0.00
2012-1-8,37.6,26.9,19.2,23.0,13.8,9.9,77,59,33,30.36,30.25,8,3,11,0.10
2012-1-9,51.1,37.5,26.1,24.1,17.3,7.5,60,44,29,30.40,30.15,9,-1,14,0.01
2012-1-10,60.6,42.9,28.2,24.4,16.7,4.3,70,39,13,30.15,29.75,13,3,17,0.00
2012-1-11,42.6,21.3,1.9,22.5,11.3,-4.0,84,69,23,30.32,29.74,17,4,22,0.00
2012-1-12,43.0,29.2,2.1,4.5,-1.2,-4.4,80,28,17,30.38,30.19,26,8,30,0.07
2012-1-13,47.7,38.2,28.6,5.4,-1.7,-7.2,31,19,12,30.19,30.03,38,11,43,0.00
2012-1-14,58.5,42.6,30.9,14.0,7.5,-0.8,35,24,14,30.18,29.89,17,3,25,0.00
2012-1-15,57.6,44.0,31.8,13.5,4.9,-4.0,38,21,8,29.89,29.63,18,0,26,0.00
2012-1-16,34.3,26.4,16.0,19.4,14.9,6.1,84,64,33,30.16,29.60,17,3,21,0.00
2012-1-17,29.5,19.0,8.6,11.3,4.5,-1.7,84,57,27,30.39,30.15,11,4,16,0.00
2012-1-18,48.9,36.8,19.0,14.9,9.3,-0.6,58,33,22,30.24,29.79,22,5,32,0.00
2012-1-19,64.8,53.0,44.1,26.2,20.7,13.3,44,29,19,29.80,29.40,33,7,44,0.00
2012-1-20,56.3,47.2,31.8,21.0,17.5,13.8,55,31,21,29.84,29.40,31,7,40,0.00
2012-1-21,62.8,44.4,28.8,26.8,19.5,12.6,61,39,18,29.78,29.18,19,3,27,0.00
2012-1-22,45.9,39.5,29.3,22.3,6.5,-5.8,41,26,15,29.84,29.18,32,10,45,0.00
2012-1-23,52.3,38.4,28.6,15.3,7.2,-2.0,51,29,16,29.93,29.78,14,4,18,0.00
2012-1-24,34.3,31.0,21.0,28.4,20.0,14.5,82,64,48,30.33,29.78,12,2,15,0.00
2012-1-25,59.9,39.4,18.0,22.6,13.0,7.0,79,42,12,30.29,30.06,35,5,45,0.00
2012-1-26,57.6,47.4,40.8,26.4,13.0,6.4,47,26,14,30.13,29.62,30,7,34,0.00
2012-1-27,43.2,30.8,19.0,25.2,15.5,6.6,84,56,26,30.38,29.66,34,6,37,0.00
2012-1-28,46.2,35.2,16.5,10.2,-6.0,-17.9,70,21,9,30.46,30.23,22,3,31,0.00
2012-1-29,55.9,47.1,39.2,13.1,8.6,-5.3,29,21,13,30.25,29.95,32,10,46,0.00
2012-1-30,64.2,46.7,34.2,17.6,9.9,2.7,39,24,9,29.94,29.69,16,4,22,0.00
2012-1-31,52.3,41.2,32.2,14.4,8.8,3.4,37,27,15,30.07,29.80,16,4,25,0.00
2012-2-1,53.2,41.4,32.5,10.2,6.6,1.0,38,24,12,30.15,30.01,14,3,21,0.00
2012-2-2,46.0,34.8,28.6,27.5,14.9,6.4,91,49,20,30.12,29.91,21,6,26,0.00
2012-2-3,28.8,26.8,25.3,25.9,23.7,22.5,91,88,82,30.53,30.12,26,8,28,0.02
2012-2-4,33.6,25.2,15.6,23.9,19.4,10.2,89,79,53,30.61,30.52,7,1,11,0.27
2012-2-5,38.7,22.5,13.5,18.9,12.1,6.1,80,65,39,30.59,30.38,8,2,11,0.09
2012-2-6,37.9,27.0,12.7,22.6,13.8,7.5,85,60,34,30.45,30.27,11,3,14,0.00
2012-2-7,26.4,22.0,17.2,18.7,15.6,8.4,85,76,59,30.53,30.44,6,2,9,0.03
2012-2-8,49.8,23.3,8.6,21.4,12.4,3.7,82,64,27,30.45,30.28,9,2,15,0.04
2012-2-9,43.5,31.3,21.0,21.0,15.0,10.9,74,52,28,30.34,30.22,7,2,11,0.00
2012-2-10,39.6,24.4,14.9,18.9,14.8,9.5,84,68,39,30.45,30.22,12,3,16,0.00
2012-2-11,19.0,12.8,7.7,13.1,5.9,1.9,83,74,60,30.56,30.40,11,2,13,0.04
2012-2-12,29.8,18.3,7.5,16.7,10.0,1.6,80,70,52,30.41,29.88,8,2,11,0.00
2012-2-13,43.0,30.3,21.4,26.4,21.4,15.3,89,71,44,29.91,29.83,10,2,14,0.00
2012-2-14,47.7,32.3,20.8,24.1,17.0,11.1,77,55,27,29.87,29.69,9,3,12,0.00
2012-2-15,35.1,28.0,23.0,22.1,19.5,13.1,81,71,54,30.24,29.87,7,2,9,0.00
2012-2-16,51.4,32.6,21.0,21.9,15.0,8.1,73,52,17,30.32,30.13,12,3,22,0.00
2012-2-17,42.6,30.1,19.8,25.5,14.1,5.4,84,54,27,30.29,30.09,11,3,14,0.00
2012-2-18,45.7,27.9,15.1,23.0,15.4,8.4,84,62,23,30.25,29.97,10,2,11,0.01
2012-2-19,42.4,31.6,21.0,22.8,15.9,7.9,72,54,26,29.97,29.63,11,3,14,0.00
2012-2-20,41.2,32.6,27.0,25.9,7.1,-4.0,86,39,15,29.95,29.68,28,7,47,0.00
2012-2-21,50.5,41.2,29.1,15.4,9.3,2.1,39,27,20,29.94,29.70,33,8,44,0.00
2012-2-22,60.3,53.1,45.3,21.7,17.6,14.0,33,25,18,29.71,29.19,49,15,73,0.00
2012-2-23,50.2,28.2,16.0,32.4,18.5,3.2,92,69,31,30.18,29.23,30,4,42,0.12
2012-2-24,40.8,28.5,16.9,12.9,7.2,2.7,62,42,22,30.35,30.18,28,5,35,0.15
2012-2-25,64.8,39.1,17.2,19.9,7.6,-4.0,72,36,7,30.23,29.63,26,7,35,0.03
2012-2-26,45.1,34.3,23.5,4.3,-3.8,-19.1,39,21,6,30.23,29.75,26,9,29,0.00
2012-2-27,51.1,32.6,19.0,17.2,6.1,-4.2,61,34,19,30.25,29.85,16,3,18,0.00
2012-2-28,45.9,34.1,25.3,27.5,16.0,8.1,69,50,22,29.90,29.50,30,1,32,0.00
2012-2-29,57.6,42.9,32.2,12.9,6.0,-0.8,40,23,12,29.91,29.62,34,4,43,0.00
2012-3-1,40.5,33.2,27.0,27.5,18.7,8.2,82,58,27,29.82,29.57,15,4,19,0.00
2012-3-2,34.3,26.0,17.8,22.1,6.2,-10.1,82,46,20,30.17,29.82,19,4,25,0.00
2012-3-3,46.0,35.4,23.0,13.1,1.9,-9.2,30,24,18,30.21,29.96,37,15,50,0.00
2012-3-4,64.2,49.4,36.7,13.6,10.1,4.1,32,21,10,30.10,29.97,43,13,51,0.00
2012-3-5,68.9,50.0,30.4,12.6,4.8,-2.9,44,20,6,30.03,29.68,29,5,31,0.00
2012-3-6,74.1,53.5,34.0,10.9,3.4,-12.5,35,16,3,29.68,29.24,21,4,32,0.00
2012-3-7,48.0,30.4,26.4,27.7,24.1,7.7,88,79,19,30.32,29.37,20,4,30,0.00
2012-3-8,48.6,34.9,24.3,23.2,11.5,1.6,81,42,15,30.60,30.32,9,2,12,0.00
2012-3-9,61.5,45.0,28.6,12.6,4.5,-4.0,43,21,7,30.55,30.08,11,3,13,0.00
2012-3-10,67.3,48.2,28.8,30.6,15.1,3.6,70,30,10,30.08,29.71,15,3,18,0.00
2012-3-11,65.3,49.4,36.0,32.2,18.4,-1.3,79,38,10,29.70,29.50,20,5,24,0.00
2012-3-12,67.3,56.0,46.2,15.3,9.3,5.5,24,16,10,29.77,29.57,19,5,25,0.00
2012-3-13,74.5,55.7,41.5,14.4,4.9,-5.6,26,14,5,29.80,29.59,14,4,18,0.00
2012-3-14,72.7,56.0,40.3,6.6,0.9,-8.0,21,12,4,29.85,29.68,18,4,18,0.00
2012-3-15,71.1,57.5,46.8,18.7,11.7,0.7,28,17,11,29.94,29.78,11,4,17,0.00
2012-3-16,73.9,60.1,47.5,21.6,15.2,7.9,32,19,10,29.83,29.52,12,4,16,0.00
2012-3-17,75.7,59.6,44.1,17.8,7.9,-6.0,25,14,4,29.57,29.31,22,0,25,0.00
2012-3-18,68.7,53.4,39.2,28.8,13.8,1.0,45,22,11,29.38,29.06,29,0,37,0.00
2012-3-19,48.6,40.7,29.7,7.3,0.4,-11.6,30,19,8,29.63,29.24,19,2,32,0.00
2012-3-20,50.4,40.2,25.7,14.7,8.2,-0.4,55,27,18,30.03,29.63,14,4,23,0.00
2012-3-21,63.0,44.2,25.9,19.9,12.2,1.9,49,29,17,30.05,29.90,19,4,27,0.00
2012-3-22,66.9,51.1,35.4,23.5,18.1,13.3,51,30,13,29.97,29.74,12,4,20,0.00
2012-3-23,76.5,55.7,36.5,21.7,16.3,11.5,51,25,9,29.90,29.75,8,3,14,0.00
2012-3-24,73.2,57.0,39.0,31.5,20.6,12.6,52,27,12,29.96,29.81,17,3,20,0.00
2012-3-25,70.0,53.9,40.1,34.9,32.2,28.6,72,47,22,29.96,29.73,11,2,15,0.00
2012-3-26,78.3,59.8,43.5,34.2,14.0,-5.4,58,24,4,29.73,29.27,29,8,47,0.00
2012-3-27,70.0,54.5,39.2,19.8,12.6,4.6,33,20,9,29.85,29.53,11,3,16,0.00
2012-3-28,74.7,56.5,37.9,19.6,14.8,8.2,44,22,8,29.86,29.62,13,3,18,0.00
2012-3-29,73.9,60.3,48.6,22.5,14.9,4.1,27,17,10,29.75,29.60,26,6,47,0.00
2012-3-30,75.9,61.9,45.7,21.7,17.7,12.9,34,19,9,29.73,29.57,14,3,18,0.00
2012-3-31,80.4,64.8,48.7,29.3,21.0,8.4,40,21,10,29.69,29.38,14,4,19,0.00
2012-4-1,82.2,65.7,45.0,22.3,11.2,3.7,30,13,5,29.38,29.06,18,4,22,0.00
2012-4-2,61.2,43.2,33.8,31.5,26.8,11.8,90,55,15,30.13,29.15,18,2,24,0.03
2012-4-3,36.1,33.6,30.7,31.5,29.6,25.9,91,85,72,30.27,30.09,20,5,24,0.43
2012-4-4,62.1,46.3,33.3,36.5,32.1,28.8,88,61,32,30.14,29.76,7,2,13,0.03
2012-4-5,73.2,54.1,33.8,41.5,29.0,21.0,74,43,15,29.81,29.60,14,-2,19,0.00
2012-4-6,75.7,57.5,38.8,40.5,13.2,-20.4,82,32,2,29.77,29.39,35,10,41,0.00
2012-4-7,62.1,47.2,29.3,21.0,13.0,-3.3,56,28,10,30.19,29.78,19,4,28,0.00
2012-4-8,71.1,53.5,30.9,20.8,10.4,-1.1,49,21,6,30.22,30.01,13,3,17,0.00
2012-4-9,66.6,51.8,35.2,29.3,20.1,10.4,47,30,18,30.07,29.96,11,3,13,0.00
2012-4-10,74.1,56.2,35.2,40.3,31.0,25.7,73,41,19,30.03,29.78,12,3,16,0.00
2012-4-11,67.3,55.9,44.6,46.2,42.0,29.3,86,61,35,29.87,29.57,20,5,35,0.17
2012-4-12,63.9,53.0,43.0,43.7,32.8,19.2,83,51,19,29.60,29.44,19,4,35,0.01
2012-4-13,67.6,52.9,36.9,32.5,15.2,3.2,59,25,9,29.68,29.52,19,5,30,0.00
2012-4-14,60.4,47.1,36.1,36.3,28.3,23.5,89,51,25,29.57,29.30,24,5,29,0.26
2012-4-15,52.0,40.6,32.9,36.9,31.8,22.8,92,73,35,29.99,29.44,23,4,25,0.37
2012-4-16,60.4,46.5,33.3,33.8,22.8,12.9,89,47,17,30.11,29.98,19,5,24,0.01
2012-4-17,68.5,52.8,35.2,28.8,22.1,16.2,62,34,15,30.09,29.86,18,4,26,0.00
2012-4-18,73.0,56.3,38.1,31.8,27.1,22.5,69,35,17,29.97,29.64,11,3,15,0.00
2012-4-19,66.4,53.7,43.5,37.8,29.3,22.3,64,41,19,29.91,29.68,24,5,30,0.00
2012-4-20,71.8,54.3,38.5,36.5,31.0,24.8,80,47,19,30.05,29.90,21,5,25,0.00
2012-4-21,73.2,63.2,52.0,36.9,28.9,20.1,55,28,18,30.01,29.82,19,5,25,0.00
2012-4-22,75.4,59.1,42.8,36.5,31.9,23.2,72,40,16,30.08,29.96,10,3,14,0.00
2012-4-23,82.0,64.4,42.1,37.2,29.1,21.6,68,31,11,30.00,29.74,11,3,13,0.00
2012-4-24,88.2,70.2,50.2,33.3,26.5,15.4,49,23,8,29.74,29.52,29,6,31,0.00
2012-4-25,79.9,66.6,51.3,36.9,26.5,17.4,39,23,12,29.74,29.53,14,4,24,0.00
2012-4-26,79.9,65.9,52.5,47.3,36.2,29.1,82,37,17,29.73,29.36,28,4,34,0.04
2012-4-27,66.4,55.9,43.5,47.7,32.5,19.6,89,48,19,29.71,29.32,32,8,39,0.00
2012-4-28,64.0,49.9,32.7,28.9,19.0,1.8,70,35,9,29.86,29.71,19,5,36,0.00
2012-4-29,63.1,49.9,34.9,35.1,30.2,24.8,82,50,24,29.92,29.80,11,3,14,0.00
2012-4-30,76.1,60.4,42.1,29.7,17.6,6.6,47,22,7,29.91,29.55,17,5,20,0.00
2012-5-1,79.9,64.9,48.0,35.4,23.4,14.7,46,22,11,29.55,29.38,20,4,26,0.00
2012-5-2,77.9,61.7,47.7,41.5,34.5,25.9,66,39,15,29.69,29.48,15,4,19,0.00
2012-5-3,80.8,67.2,52.0,41.9,32.7,24.1,65,31,14,29.73,29.49,14,4,20,0.00
2012-5-4,88.0,71.1,55.9,30.4,23.4,14.7,28,18,7,29.62,29.45,13,4,18,0.00
2012-5-5,82.2,67.0,47.5,44.6,29.1,8.6,63,27,8,29.83,29.46,16,4,29,0.01
2012-5-6,61.5,50.4,41.2,40.5,26.2,7.5,90,44,17,30.15,29.82,14,3,23,0.25
2012-5-7,47.8,42.7,36.7,40.8,38.0,33.4,91,84,64,30.27,30.14,8,2,12,0.38
2012-5-8,64.8,51.8,36.0,40.3,30.4,21.4,89,50,20,30.23,30.01,8,2,13,0.01
2012-5-9,76.6,61.7,41.7,33.4,25.0,15.6,68,30,10,30.03,29.68,11,3,15,0.00
2012-5-10,83.1,69.0,47.1,32.9,22.6,13.1,48,19,8,29.68,29.44,16,4,30,0.00
2012-5-11,59.7,43.1,37.8,36.9,33.2,25.3,91,70,37,30.26,29.67,18,4,26,0.20
2012-5-12,49.8,42.9,37.2,43.0,38.0,34.9,92,83,65,30.36,30.25,10,2,13,0.13
2012-5-13,60.3,49.2,39.4,42.4,39.5,34.2,93,72,39,30.30,30.17,9,2,11,0.00
2012-5-14,77.5,61.3,45.1,34.0,22.4,5.9,59,27,7,30.20,29.96,9,3,13,0.00
2012-5-15,79.9,65.5,46.8,32.7,23.6,14.9,43,22,9,30.02,29.82,14,3,16,0.00
2012-5-16,81.1,64.9,47.3,40.1,30.1,19.9,59,29,13,29.87,29.68,18,4,26,0.00
2012-5-17,80.8,68.1,55.9,37.2,31.0,24.1,42,26,14,29.68,29.46,9,3,18,0.00
2012-5-18,80.8,66.7,51.1,40.5,31.2,20.3,53,29,11,29.48,29.29,18,4,37,0.00
2012-5-19,58.5,50.2,44.4,45.9,41.8,31.8,90,74,38,30.06,29.48,12,3,19,0.30
2012-5-20,75.4,57.2,39.6,42.4,37.2,31.3,90,53,20,30.17,30.00,15,-2,19,0.00
2012-5-21,85.3,66.8,44.4,42.8,34.2,25.9,74,36,12,30.02,29.73,11,3,15,0.00
2012-5-22,90.5,73.7,54.3,51.6,29.8,19.8,49,22,8,29.73,29.26,14,3,16,0.00
2012-5-23,67.8,56.9,47.8,48.9,38.6,21.4,91,55,18,29.47,29.26,16,3,21,0.41
2012-5-24,70.0,56.4,42.6,46.0,31.0,19.0,92,46,16,29.69,29.43,22,6,31,0.00
2012-5-25,73.9,58.1,46.8,46.2,40.2,37.0,75,54,31,29.69,29.53,16,3,20,0.00
2012-5-26,88.3,67.9,45.1,52.7,35.6,12.7,89,45,6,29.61,29.19,30,6,35,0.00
2012-5-27,72.0,62.1,49.8,21.9,11.3,-7.6,24,14,5,29.68,29.31,30,6,35,0.00
2012-5-28,78.1,62.1,46.8,26.4,19.4,12.6,37,20,9,29.85,29.68,18,4,25,0.00
2012-5-29,79.2,63.4,43.5,31.8,25.3,18.1,57,26,11,29.95,29.72,14,3,15,0.00
2012-5-30,82.8,65.5,47.7,38.8,29.7,15.3,65,31,9,29.85,29.62,26,5,35,0.00
2012-5-31,72.7,59.9,45.0,40.5,36.5,34.0,70,44,25,29.94,29.81,11,3,14,0.00
2012-6-1,79.3,65.6,48.7,45.5,40.3,36.0,75,43,23,29.82,29.69,11,3,18,0.01
2012-6-2,78.3,63.5,49.5,45.1,41.1,32.2,72,46,20,29.76,29.59,26,3,33,0.01
2012-6-3,89.4,70.7,51.6,52.2,38.7,29.5,72,36,13,29.73,29.62,25,3,28,0.00
2012-6-4,93.2,72.7,51.1,46.0,38.6,27.0,65,34,11,29.74,29.60,26,4,38,0.00
2012-6-5,86.4,72.4,54.0,46.9,41.4,36.7,59,35,19,29.64,29.41,25,8,33,0.00
2012-6-6,82.8,68.7,53.8,55.2,45.5,39.7,73,46,24,29.64,29.46,18,5,21,0.02
2012-6-7,81.1,68.1,56.5,56.8,52.5,46.8,87,60,33,29.74,29.58,16,3,25,0.02
2012-6-8,90.7,75.2,58.5,50.4,40.7,26.8,72,35,11,29.78,29.31,13,4,19,0.00
2012-6-9,98.2,79.4,57.6,35.2,24.3,15.1,37,15,6,29.35,29.08,13,4,21,0.00
2012-6-10,76.3,65.0,53.2,36.9,28.5,7.0,43,27,10,29.78,29.17,15,6,24,0.00
2012-6-11,78.3,65.0,45.7,32.4,23.2,6.8,49,22,12,29.98,29.78,17,4,21,0.00
2012-6-12,85.5,67.5,46.9,36.9,27.0,16.0,65,26,8,29.92,29.70,12,3,13,0.00
2012-6-13,90.3,74.9,50.7,32.7,23.1,14.2,40,16,6,29.75,29.42,13,4,22,0.00
2012-6-14,85.3,71.5,57.7,43.0,31.9,14.5,39,24,13,29.66,29.44,10,3,14,0.00
2012-6-15,81.7,70.3,59.0,51.3,41.8,27.0,74,38,16,29.74,29.54,17,4,23,0.00
2012-6-16,79.9,67.3,57.2,52.7,42.9,35.1,62,43,22,29.93,29.70,17,4,24,0.01
2012-6-17,96.3,78.5,54.3,40.8,29.0,13.5,53,21,5,29.76,29.37,22,6,29,0.00
2012-6-18,91.0,83.4,68.2,32.7,22.4,14.7,24,11,8,29.38,29.17,16,6,24,0.00
2012-6-19,94.3,82.2,64.6,41.0,29.2,15.6,33,16,8,29.29,29.19,13,4,20,0.00
2012-6-20,72.1,64.4,54.1,49.1,40.9,21.2,78,45,18,30.00,29.30,12,2,18,0.00
2012-6-21,87.4,71.9,53.2,48.7,40.8,32.7,60,34,21,30.02,29.66,12,3,17,0.00
2012-6-22,95.2,76.2,53.1,51.1,40.0,18.3,74,33,8,29.67,29.35,13,3,17,0.00
2012-6-23,100.9,85.3,67.5,41.0,26.7,16.2,34,13,5,29.48,29.36,15,4,22,0.00
2012-6-24,98.8,89.9,76.1,43.0,35.3,22.8,27,15,7,29.65,29.53,16,4,39,0.00
2012-6-25,100.8,83.5,66.4,47.3,34.9,19.9,42,21,6,29.68,29.38,20,5,28,0.00
2012-6-26,99.0,82.8,67.1,53.2,36.8,28.2,51,21,10,29.46,29.34,27,5,33,0.04
2012-6-27,95.2,77.9,64.6,54.7,44.9,36.3,65,34,14,29.71,29.42,14,4,25,0.01
2012-6-28,89.1,74.7,58.8,53.2,44.4,33.4,65,37,16,29.81,29.68,24,4,32,0.00
2012-6-29,92.1,78.5,63.1,56.5,40.2,28.4,57,28,12,29.73,29.60,20,4,27,0.01
2012-6-30,94.6,79.7,60.6,44.6,36.4,27.1,50,23,9,29.66,29.53,21,3,26,0.00
2012-7-1,98.4,82.0,63.0,48.0,35.8,23.7,45,22,7,29.61,29.41,20,4,29,0.00
2012-7-2,93.9,78.0,59.7,52.5,44.9,35.6,60,34,14,29.68,29.50,21,4,26,0.00
2012-7-3,91.8,75.4,64.8,53.2,46.3,34.5,63,37,17,29.67,29.53,26,4,30,0.01
2012-7-4,93.7,77.6,58.8,51.8,42.3,31.5,68,33,12,29.62,29.52,12,3,16,0.00
2012-7-5,94.6,79.7,68.2,58.1,51.4,40.5,65,40,17,29.61,29.44,13,4,23,0.00
2012-7-6,84.6,70.0,60.3,60.8,53.3,47.3,88,59,28,29.93,29.57,18,3,28,0.51
2012-7-7,81.9,66.0,59.4,59.7,57.1,50.4,93,76,36,30.06,29.91,15,3,24,0.26
2012-7-8,72.9,64.3,59.5,61.0,57.7,53.2,93,81,52,30.05,29.99,11,2,16,0.14
2012-7-9,79.9,68.0,60.3,62.1,56.7,50.5,94,71,38,30.06,29.96,9,2,11,0.30
2012-7-10,67.1,66.7,66.4,53.2,52.9,52.7,62,61,60,30.00,30.00,1,0,2,0.00
2012-7-11,73.2,71.0,69.1,46.8,44.8,43.7,43,39,36,29.83,29.78,6,2,8,0.00
2012-7-12,90.1,76.0,59.0,51.8,44.7,36.5,71,35,18,29.84,29.73,11,3,15,0.00
2012-7-13,93.7,79.9,66.7,50.4,41.1,26.1,51,27,9,29.81,29.68,12,2,13,0.00
2012-7-14,92.8,77.5,61.3,50.4,42.3,34.3,56,31,13,29.78,29.64,13,2,18,0.00
2012-7-15,95.2,78.1,62.8,50.2,45.5,37.9,61,34,15,29.68,29.53,19,4,24,0.00
2012-7-16,91.8,72.9,62.1,58.3,47.8,41.0,87,45,19,29.71,29.53,24,4,28,0.16
2012-7-17,88.0,74.6,57.0,54.1,48.0,39.7,79,43,22,29.73,29.58,12,3,16,0.00
2012-7-18,94.8,78.5,63.1,51.6,43.1,33.6,55,31,12,29.76,29.68,16,4,24,0.00
2012-7-19,96.6,79.1,59.5,50.9,43.9,36.0,63,32,13,29.81,29.70,7,2,15,0.00
2012-7-20,98.4,81.3,61.5,54.3,41.6,32.0,59,29,10,29.80,29.67,14,3,18,0.00
2012-7-21,97.3,81.2,63.9,50.7,42.4,35.8,50,28,12,29.80,29.62,9,3,15,0.00
2012-7-22,93.4,78.3,63.9,52.7,46.9,42.4,57,35,19,29.80,29.67,14,3,22,0.00
2012-7-23,95.5,79.9,66.6,51.6,44.9,37.6,48,31,14,29.80,29.61,24,4,32,0.00
2012-7-24,95.9,79.5,61.3,54.9,45.3,37.8,62,32,15,29.67,29.47,18,3,30,0.00
2012-7-25,86.5,73.9,63.0,55.9,50.5,45.0,68,46,24,29.76,29.53,18,3,25,0.00
2012-7-26,88.9,73.7,56.7,54.3,48.6,41.7,79,45,20,29.85,29.73,11,3,15,0.00
2012-7-27,91.0,72.9,62.2,59.5,48.1,40.6,70,43,20,29.89,29.71,22,5,32,0.62
2012-7-28,90.1,74.1,59.4,54.7,48.0,40.6,74,42,20,29.92,29.76,18,4,31,0.00
2012-7-29,88.3,73.1,62.1,64.2,52.2,44.1,75,51,24,29.87,29.73,12,2,24,0.09
2012-7-30,87.8,71.4,61.3,62.8,54.4,45.1,82,58,24,29.89,29.78,13,3,18,0.04
2012-7-31,91.6,76.0,60.3,65.8,52.6,45.5,92,48,22,29.88,29.69,11,3,45,0.45
2012-8-1,89.8,75.1,62.8,55.4,49.2,40.6,66,43,18,29.79,29.66,21,4,24,0.01
2012-8-2,89.4,74.9,60.6,54.3,44.9,36.0,72,37,18,29.77,29.60,17,3,29,0.00
2012-8-3,95.4,79.2,58.6,52.2,37.4,23.4,65,27,8,29.70,29.51,28,5,32,0.00
2012-8-4,81.1,68.8,57.6,50.0,43.9,38.7,61,43,24,29.97,29.71,19,4,22,0.00
2012-8-5,92.7,74.1,55.9,48.0,42.0,32.2,64,36,12,29.99,29.80,12,3,18,0.00
2012-8-6,93.2,79.2,64.8,51.8,42.4,31.3,55,29,13,29.89,29.77,12,3,21,0.00
2012-8-7,91.0,77.9,62.4,53.4,43.5,35.4,58,32,18,29.86,29.77,12,3,20,0.00
2012-8-8,92.8,77.8,57.6,46.2,35.0,27.3,51,23,10,29.92,29.81,12,3,16,0.00
2012-8-9,87.8,75.5,57.4,50.7,40.9,30.6,50,30,19,29.89,29.74,14,2,16,0.00
2012-8-10,91.2,75.8,61.0,49.5,44.1,37.6,62,35,16,29.87,29.65,16,4,22,0.00
2012-8-11,88.2,74.9,60.1,57.2,45.5,39.0,84,39,21,29.81,29.60,21,5,35,0.13
2012-8-12,84.0,70.6,53.2,49.1,42.1,33.6,82,41,18,29.96,29.81,11,2,15,0.00
2012-8-13,79.0,67.0,57.6,49.6,43.2,35.6,61,43,27,29.92,29.76,19,3,26,0.00
2012-8-14,93.9,72.8,52.9,49.1,39.6,23.4,73,37,8,29.81,29.62,12,2,22,0.00
2012-8-15,92.7,77.2,58.8,47.5,38.2,28.4,63,27,11,29.86,29.54,17,4,27,0.00
2012-8-16,76.3,63.2,52.9,49.6,46.5,44.6,77,56,35,29.99,29.86,11,3,19,0.00
2012-8-17,82.2,65.7,48.6,50.7,45.5,41.0,84,53,24,29.98,29.78,11,2,15,0.00
2012-8-18,79.2,67.8,56.8,46.4,39.2,32.4,63,38,20,29.93,29.80,12,3,15,0.00
2012-8-19,80.2,66.4,52.0,39.9,34.3,30.0,52,33,17,29.93,29.80,9,2,12,0.00
2012-8-20,80.4,67.4,53.1,45.1,37.7,30.7,58,35,20,29.83,29.74,10,2,27,0.00
2012-8-21,87.1,72.4,57.6,43.0,36.9,31.1,54,30,15,29.86,29.70,9,3,14,0.00
2012-8-22,91.4,72.2,58.8,56.1,42.8,31.1,66,38,16,29.70,29.61,22,4,31,0.00
2012-8-23,79.5,69.9,60.3,53.1,49.4,45.3,68,49,31,29.72,29.62,14,2,17,0.00
2012-8-24,82.6,72.2,58.5,49.5,43.0,30.7,66,38,18,29.63,29.53,19,4,30,0.00
2012-8-25,78.3,69.3,57.9,45.7,39.0,30.6,49,34,21,29.82,29.55,15,3,18,0.00
2012-8-26,91.8,72.8,51.6,44.6,35.0,21.6,69,31,8,29.87,29.75,12,2,13,0.00
2012-8-27,92.7,75.8,61.0,44.4,38.0,28.6,46,27,14,29.87,29.79,19,4,23,0.00
2012-8-28,92.5,76.9,63.7,49.6,41.9,36.7,57,30,16,29.86,29.75,14,3,21,0.00
2012-8-29,93.7,78.8,62.1,52.5,42.0,34.5,59,29,14,29.77,29.59,20,4,26,0.00
2012-8-30,90.5,76.3,63.9,50.7,43.4,37.4,60,33,17,29.76,29.58,18,3,29,0.00
2012-8-31,91.0,74.8,60.4,45.9,36.8,27.0,50,29,10,29.79,29.66,12,3,18,0.00
2012-9-1,90.5,72.8,55.9,54.7,41.6,29.5,55,34,17,29.76,29.65,22,4,36,0.02
2012-9-2,90.0,73.8,60.4,49.5,44.2,37.4,64,38,16,29.80,29.69,23,3,23,0.00
2012-9-3,88.5,71.9,58.5,48.6,40.8,29.7,64,36,13,29.83,29.73,15,3,22,0.01
2012-9-4,90.3,76.5,61.5,40.5,27.8,16.0,45,19,8,29.82,29.64,20,6,30,0.00
2012-9-5,83.8,69.2,51.6,34.0,25.6,16.9,40,20,11,29.88,29.69,14,4,22,0.00
2012-9-6,88.0,74.0,56.5,38.7,25.1,14.4,38,17,9,29.81,29.62,11,3,24,0.00
2012-9-7,69.8,61.2,53.2,46.0,41.4,30.2,71,50,24,30.15,29.77,21,4,26,0.01
2012-9-8,78.3,63.7,50.2,44.8,35.8,25.2,70,40,15,30.19,30.03,10,3,17,0.00
2012-9-9,87.1,69.3,48.6,36.0,29.2,20.5,54,25,9,30.08,29.75,13,3,19,0.00
2012-9-10,91.0,73.5,57.2,39.9,32.3,25.0,42,24,10,29.77,29.56,11,3,17,0.00
2012-9-11,83.5,70.4,59.7,55.6,41.0,33.3,85,39,17,29.73,29.54,13,3,16,0.06
2012-9-12,60.1,53.8,49.8,55.6,49.8,46.6,93,86,73,30.24,29.73,11,2,16,1.01
2012-9-13,69.8,58.3,51.3,48.7,41.7,28.2,89,59,24,30.36,30.23,8,2,12,0.00
2012-9-14,77.4,63.3,52.3,38.8,30.1,21.4,52,31,13,30.30,30.05,9,3,13,0.00
2012-9-15,85.1,67.0,46.4,40.1,28.2,18.0,63,27,9,30.06,29.82,9,2,12,0.00
2012-9-16,85.6,72.3,54.0,32.9,21.9,12.0,34,16,7,29.85,29.65,23,5,26,0.00
2012-9-17,64.8,56.4,49.1,42.4,38.9,31.1,67,53,32,30.01,29.81,12,2,24,0.00
2012-9-18,77.0,60.3,45.5,39.6,33.8,26.1,67,41,17,30.05,29.88,12,3,13,0.00
2012-9-19,80.4,66.7,53.2,36.0,28.6,21.0,41,25,13,29.94,29.85,13,3,17,0.00
2012-9-20,79.5,64.2,47.5,37.0,30.4,25.0,60,31,14,29.93,29.84,11,2,13,0.00
2012-9-21,76.6,63.1,46.8,36.9,30.7,25.2,59,32,15,29.99,29.88,10,2,11,0.00
2012-9-22,75.6,62.0,46.8,38.8,34.3,29.7,60,37,23,30.09,29.93,10,2,10,0.00
2012-9-23,87.6,67.6,46.9,43.3,31.5,19.6,64,32,9,29.96,29.79,19,3,22,0.00
2012-9-24,79.2,67.5,57.2,50.5,37.3,30.2,65,35,17,29.82,29.63,17,3,18,0.01
2012-9-25,68.9,57.9,50.5,49.5,41.7,35.1,91,57,35,29.87,29.70,15,3,18,0.18
2012-9-26,65.3,55.6,49.5,52.7,47.6,43.0,94,76,46,30.02,29.85,11,2,21,0.29
2012-9-27,65.1,52.7,43.2,49.8,45.5,40.6,94,78,52,30.08,29.98,11,2,18,0.01
2012-9-28,71.4,57.6,44.2,44.6,40.2,36.1,85,55,29,30.09,29.96,8,2,13,0.00
2012-9-29,77.2,62.0,49.1,41.5,37.0,28.8,67,43,17,29.97,29.85,8,2,13,0.00
2012-9-30,72.9,61.6,51.3,42.3,36.8,31.1,65,42,24,30.01,29.88,16,3,31,0.00
2012-10-1,67.8,58.6,50.4,45.5,38.6,33.4,75,49,29,30.11,29.96,10,3,22,0.00
2012-10-2,84.7,65.7,43.5,39.0,28.7,17.8,77,33,9,29.96,29.65,17,3,23,0.00
2012-10-3,85.6,64.3,40.3,32.4,24.9,14.4,60,27,7,30.08,29.51,25,7,30,0.00
2012-10-4,46.4,39.9,36.0,27.9,24.8,23.0,69,55,41,30.25,30.07,11,3,12,0.00
2012-10-5,38.8,34.7,30.4,32.0,28.8,23.9,92,79,64,30.34,30.14,17,4,21,0.09
2012-10-6,36.0,32.9,30.6,31.6,29.5,26.6,92,87,77,30.36,30.25,13,3,19,0.03
2012-10-7,54.3,39.2,27.5,28.8,20.5,10.8,87,54,19,30.31,30.03,8,2,12,0.02
2012-10-8,73.2,51.3,29.1,26.6,14.3,1.9,69,32,7,30.05,29.76,18,4,23,0.00
2012-10-9,52.5,44.7,34.9,34.3,28.9,10.4,76,56,21,30.12,29.74,10,3,12,0.00
2012-10-10,61.0,44.9,34.0,39.6,33.9,29.1,84,67,36,30.12,29.92,6,1,8,0.00
2012-10-11,64.8,54.8,42.1,36.9,30.9,21.7,81,42,27,30.08,29.93,12,3,15,0.00
2012-10-12,64.8,47.2,34.3,46.8,36.7,29.5,86,68,39,30.05,29.77,11,2,22,0.01
2012-10-13,57.6,51.5,45.9,44.6,33.8,22.6,86,53,33,30.02,29.75,16,4,23,0.09
2012-10-14,70.2,53.2,38.8,41.7,33.1,25.2,90,54,19,30.19,30.01,16,4,20,0.00
2012-10-15,80.2,57.9,37.6,36.5,25.5,13.8,76,36,9,30.03,29.72,17,3,28,0.00
2012-10-16,77.5,64.5,46.4,40.8,26.7,19.2,58,25,13,29.74,29.28,37,8,49,0.00
2012-10-17,57.0,50.5,43.9,31.6,8.7,0.0,57,19,11,29.88,29.47,30,12,47,0.00
2012-10-18,65.7,51.8,35.1,15.8,11.0,6.1,44,21,11,29.99,29.88,24,8,31,0.00
2012-10-19,69.6,55.9,33.8,21.9,17.2,9.7,52,25,12,29.96,29.71,20,5,31,0.00
2012-10-20,76.5,62.5,51.4,28.6,17.6,9.0,28,18,9,29.72,29.42,21,4,26,0.00
2012-10-21,69.8,57.7,44.2,32.5,22.5,12.4,57,27,13,29.72,29.50,14,-1,17,0.00
2012-10-22,65.7,49.5,34.7,37.0,31.6,23.4,76,53,30,29.78,29.58,11,2,12,0.00
2012-10-23,80.8,58.7,39.0,28.4,17.3,-0.2,51,26,5,29.72,29.50,17,4,28,0.00
2012-10-24,49.8,42.3,29.5,39.0,31.1,26.1,92,66,49,30.03,29.57,23,4,25,0.25
2012-10-25,34.0,30.3,28.0,27.9,26.4,25.3,91,86,71,30.36,30.04,7,2,10,0.05
2012-10-26,40.1,30.2,25.5,27.5,24.0,22.1,89,79,51,30.55,30.25,11,3,14,0.29
2012-10-27,50.5,35.5,25.0,28.8,22.4,15.6,89,64,27,30.27,30.13,12,2,16,0.05
2012-10-28,60.6,44.2,29.7,29.8,25.4,21.4,77,52,24,30.17,29.97,15,4,25,0.00
2012-10-29,69.8,58.3,49.6,30.7,26.0,21.9,43,29,18,30.04,29.89,17,5,26,0.00
2012-10-30,71.4,56.3,38.8,31.1,24.8,19.6,64,32,14,30.01,29.89,14,4,21,0.00
2012-10-31,71.1,53.7,40.1,28.0,24.0,18.9,53,34,14,30.01,29.94,9,2,10,0.00
2012-11-1,70.2,52.0,38.5,32.9,24.5,17.1,58,37,14,30.00,29.79,7,2,10,0.00
2012-11-2,57.6,51.2,41.5,29.8,21.9,14.2,56,33,19,30.03,29.81,12,4,15,0.00
2012-11-3,61.0,43.7,31.3,32.2,27.0,23.4,78,54,25,30.14,30.03,7,2,11,0.00
2012-11-4,66.4,49.5,34.7,27.1,21.8,14.4,69,38,16,30.25,30.06,20,-20,27,0.00
2012-11-5,67.8,50.8,32.2,31.3,25.8,21.0,81,44,19,30.23,30.02,21,4,27,0.00
2012-11-6,66.0,52.3,40.1,31.3,26.5,20.7,59,38,23,30.11,29.99,11,2,18,0.00
2012-11-7,73.8,54.0,36.0,25.2,18.8,11.3,60,29,9,30.03,29.80,10,3,12,0.00
2012-11-8,57.0,47.3,37.6,29.1,22.1,13.1,60,38,22,29.83,29.70,12,3,20,0.00
2012-11-9,59.9,45.4,30.6,33.8,28.2,22.5,80,54,28,29.70,29.42,24,3,29,0.00
2012-11-10,55.0,38.0,20.8,32.5,25.3,15.4,91,67,24,29.83,29.25,24,6,31,0.07
2012-11-11,34.2,25.4,16.2,18.3,5.4,-5.1,84,48,21,30.32,29.83,23,6,32,0.04
2012-11-12,52.0,36.6,24.3,19.6,5.9,-9.6,62,30,11,30.38,30.25,26,5,31,0.02
2012-11-13,55.6,39.7,27.3,22.3,16.0,3.2,74,43,18,30.31,30.18,17,4,25,0.00
2012-11-14,55.6,37.9,25.9,26.4,18.3,12.4,76,49,18,30.26,30.10,8,2,9,0.00
2012-11-15,44.4,35.0,28.0,29.5,24.5,18.9,83,66,49,30.43,30.21,8,2,11,0.00
2012-11-16,57.7,38.2,23.2,27.3,20.7,11.7,82,54,21,30.35,30.09,5,1,8,0.00
2012-11-17,63.1,48.2,35.6,26.4,22.5,18.9,57,38,21,30.09,29.93,11,3,13,0.00
2012-11-18,64.2,48.8,34.9,23.2,20.0,16.0,59,34,16,29.99,29.85,16,5,24,0.00
2012-11-19,55.8,46.1,35.1,22.3,18.7,15.6,53,34,22,30.16,29.99,12,4,19,0.00
2012-11-20,66.4,46.4,30.9,20.8,16.1,12.0,58,33,12,30.21,30.01,9,2,13,0.00
2012-11-21,68.7,52.0,37.2,19.6,11.4,1.2,43,21,10,30.01,29.75,6,3,11,0.00
2012-11-22,54.5,44.6,29.1,26.8,15.9,7.2,50,32,18,30.42,29.78,15,4,19,0.00
2012-11-23,49.6,35.0,22.3,18.0,12.9,8.4,56,42,23,30.52,30.27,7,-2,11,0.00
2012-11-24,60.3,49.3,32.2,16.7,9.6,4.6,52,22,12,30.27,29.87,18,4,26,0.00
2012-11-25,62.8,48.5,36.3,17.6,7.3,-2.7,41,21,7,29.88,29.63,18,3,23,0.00
2012-11-26,36.7,29.1,21.6,26.8,22.5,14.0,88,77,40,30.34,29.87,8,2,13,0.00
2012-11-27,58.6,39.3,19.9,19.6,7.3,-3.6,86,32,8,30.32,30.19,9,3,12,0.00
2012-11-28,53.8,39.3,29.3,12.2,6.5,-2.4,39,26,12,30.26,30.06,7,2,9,0.00
2012-11-29,62.8,48.6,32.2,23.0,15.5,3.7,42,27,16,30.06,29.90,17,4,22,0.00
2012-11-30,60.6,44.9,34.0,21.0,17.4,13.5,48,35,16,29.97,29.76,10,2,11,0.00
2012-12-1,66.0,54.6,42.3,24.3,18.3,7.2,41,25,15,29.87,29.76,23,5,30,0.00
2012-12-2,63.1,48.7,36.3,18.3,9.7,5.7,32,21,11,29.85,29.55,13,2,20,0.00
2012-12-3,58.1,47.5,33.1,24.4,13.5,5.4,40,26,15,30.11,29.56,33,6,39,0.00
2012-12-4,52.2,39.8,25.3,18.0,9.7,3.6,45,29,18,30.33,30.10,6,2,11,0.00
2012-12-5,70.5,55.0,42.3,26.4,20.8,12.9,47,28,13,30.17,29.68,26,6,36,0.00
2012-12-6,54.9,44.1,30.4,30.9,26.5,21.6,76,52,27,29.85,29.70,26,5,32,0.00
2012-12-7,55.4,39.0,28.6,22.5,18.4,10.9,73,46,17,29.93,29.75,21,4,26,0.00
2012-12-8,51.4,33.7,22.5,24.6,17.1,7.2,84,56,19,29.94,29.65,24,5,37,0.00
2012-12-9,24.8,19.5,10.8,19.6,3.5,-5.1,80,52,29,30.36,29.93,14,4,20,0.00
2012-12-10,40.3,29.1,10.6,18.7,0.0,-8.7,80,30,17,30.22,30.00,23,7,33,0.00
2012-12-11,44.2,29.8,14.9,19.4,11.2,5.2,86,51,20,30.11,29.88,24,4,30,0.02
2012-12-12,55.8,38.6,26.4,13.8,9.7,6.1,52,32,14,29.90,29.76,8,2,19,0.00
2012-12-13,54.5,36.6,26.8,15.4,9.6,5.2,49,34,14,30.02,29.90,11,2,11,0.00
2012-12-14,43.5,33.8,26.6,15.3,12.3,8.2,53,41,26,29.89,29.52,6,2,9,0.00
2012-12-15,46.2,37.5,24.4,24.1,18.4,14.0,75,47,27,29.72,29.65,13,4,24,0.00
2012-12-16,45.0,31.0,19.9,24.4,11.8,0.5,89,52,21,29.90,29.69,25,1,31,0.00
2012-12-17,51.6,39.2,28.4,15.6,9.8,2.5,39,30,21,29.85,29.57,21,5,32,0.00
2012-12-18,44.2,35.2,25.3,26.8,21.2,9.3,84,59,34,29.74,29.61,14,4,21,0.00
2012-12-19,25.3,19.4,10.8,19.8,9.7,-8.9,84,68,28,30.34,29.69,18,6,26,0.00
2012-12-20,47.7,30.7,16.9,10.0,1.2,-9.6,51,29,15,30.46,30.31,25,5,32,0.07
2012-12-21,49.1,37.2,24.6,14.4,6.0,0.3,48,28,19,30.31,30.08,9,3,15,0.00
2012-12-22,50.7,38.5,28.8,9.7,-0.2,-7.6,33,20,10,30.08,29.89,13,3,13,0.00
2012-12-23,53.1,38.2,25.0,16.0,6.1,-4.4,60,29,15,29.95,29.87,24,4,36,0.00
2012-12-24,36.9,27.3,16.9,21.6,15.0,11.5,85,61,39,30.05,29.75,12,4,15,0.00
2012-12-25,18.7,11.4,3.6,12.2,4.3,-2.0,83,73,56,30.40,30.05,10,2,15,0.04
2012-12-26,28.4,14.2,3.2,14.5,6.7,-2.0,80,72,53,30.31,29.91,7,1,9,0.01
2012-12-27,26.2,18.1,7.5,17.2,11.0,2.7,83,74,62,30.12,29.90,8,2,9,0.00
2012-12-28,34.3,20.2,7.2,10.6,1.6,-5.6,79,49,22,30.33,30.10,21,4,37,0.01
2012-12-29,32.7,19.3,7.2,8.2,1.0,-6.0,67,46,25,30.37,30.13,6,2,8,0.00
2012-12-30,43.5,26.4,13.6,11.5,3.9,-3.8,59,40,14,30.17,30.04,16,4,21,0.00
2012-12-31,23.0,19.2,11.8,14.9,11.0,6.3,80,70,59,30.25,30.06,6,2,9,0.00
2013-1-1,30.4,19.9,9.9,12.7,3.7,-5.3,79,53,26,30.41,30.24,10,2,17,0.00